createdAt,value
2022-11-15T00:00:20.186Z,4
2022-11-15T00:01:24.028Z,4
2022-11-15T00:02:26.681Z,4
2022-11-15T00:03:30.126Z,4
2022-11-15T00:04:34.950Z,4
2022-11-15T00:05:37.580Z,4
2022-11-15T00:06:40.321Z,4
2022-11-15T00:07:55.015Z,4
2022-11-15T00:08:58.559Z,4
2022-11-15T00:10:01.155Z,4
2022-11-15T00:11:03.768Z,4
2022-11-15T00:12:06.967Z,4
2022-11-15T00:13:09.569Z,4
2022-11-15T00:14:13.187Z,4
2022-11-15T00:15:15.824Z,6
2022-11-15T00:16:18.478Z,4
2022-11-15T00:17:21.106Z,4
2022-11-15T00:18:23.734Z,3
2022-11-15T00:19:26.405Z,4
2022-11-15T00:20:29.043Z,4
2022-11-15T00:21:31.694Z,4
2022-11-15T00:22:34.395Z,4
2022-11-15T00:23:37.548Z,3
2022-11-15T00:24:40.124Z,4
2022-11-15T00:25:42.725Z,3
2022-11-15T00:26:45.349Z,4
2022-11-15T00:27:47.968Z,4
2022-11-15T00:28:50.634Z,4
2022-11-15T00:29:53.233Z,4
2022-11-15T00:30:55.896Z,4
2022-11-15T00:31:58.541Z,4
2022-11-15T00:33:01.154Z,4
2022-11-15T00:34:03.820Z,3
2022-11-15T00:35:09.941Z,4
2022-11-15T00:36:12.449Z,4
2022-11-15T00:37:15.678Z,4
2022-11-15T00:38:18.360Z,4
2022-11-15T00:39:20.998Z,4
2022-11-15T00:40:23.663Z,4
2022-11-15T00:41:26.324Z,4
2022-11-15T00:42:39.044Z,4
2022-11-15T00:43:41.364Z,4
2022-11-15T00:44:44.041Z,4
2022-11-15T00:45:46.658Z,4
2022-11-15T00:46:49.314Z,4
2022-11-15T00:47:51.959Z,4
2022-11-15T00:48:54.612Z,4
2022-11-15T00:49:57.277Z,4
2022-11-15T00:50:59.919Z,4
2022-11-15T00:52:02.608Z,4
2022-11-15T00:53:05.465Z,3
2022-11-15T00:54:08.154Z,4
2022-11-15T00:55:10.775Z,3
2022-11-15T00:56:13.402Z,4
2022-11-15T00:57:16.043Z,3
2022-11-15T00:58:18.641Z,3
2022-11-15T00:59:21.303Z,3
2022-11-15T01:00:23.938Z,3
2022-11-15T01:01:26.685Z,4
2022-11-15T01:02:29.566Z,4
2022-11-15T01:03:32.460Z,4
2022-11-15T01:04:36.109Z,4
2022-11-15T01:05:40.253Z,3
2022-11-15T01:06:42.994Z,3
2022-11-15T01:07:45.606Z,3
2022-11-15T01:08:48.236Z,3
2022-11-15T01:09:50.983Z,3
2022-11-15T01:10:53.655Z,3
2022-11-15T01:11:56.296Z,3
2022-11-15T01:12:58.912Z,4
2022-11-15T01:14:01.499Z,4
2022-11-15T01:15:04.174Z,4
2022-11-15T01:16:06.799Z,4
2022-11-15T01:17:09.408Z,4
2022-11-15T01:18:12.030Z,4
2022-11-15T01:19:14.664Z,4
2022-11-15T01:20:17.345Z,4
2022-11-15T01:21:19.977Z,4
2022-11-15T01:22:22.592Z,3
2022-11-15T01:23:25.223Z,4
2022-11-15T01:24:27.881Z,4
2022-11-15T01:25:30.629Z,3
2022-11-15T01:26:33.216Z,3
2022-11-15T01:27:35.857Z,3
2022-11-15T01:28:38.529Z,3
2022-11-15T01:29:41.139Z,3
2022-11-15T01:30:43.809Z,3
2022-11-15T01:31:46.401Z,3
2022-11-15T01:32:49.035Z,3
2022-11-15T01:33:51.687Z,3
2022-11-15T01:34:54.353Z,3
2022-11-15T01:35:57.001Z,3
2022-11-15T01:36:59.633Z,3
2022-11-15T01:38:12.274Z,3
2022-11-15T01:39:14.474Z,4
2022-11-15T01:40:17.150Z,4
2022-11-15T01:41:19.807Z,4
2022-11-15T01:42:22.432Z,4
2022-11-15T01:43:25.077Z,3
2022-11-15T01:44:27.721Z,3
2022-11-15T01:45:30.378Z,3
2022-11-15T01:46:32.967Z,3
2022-11-15T01:47:35.610Z,3
2022-11-15T01:48:38.248Z,4
2022-11-15T01:49:40.930Z,5
2022-11-15T01:50:43.573Z,4
2022-11-15T01:51:46.202Z,4
2022-11-15T01:52:48.824Z,4
2022-11-15T01:53:51.438Z,4
2022-11-15T01:54:54.097Z,5
2022-11-15T01:55:56.764Z,4
2022-11-15T01:56:59.483Z,5
2022-11-15T01:58:02.121Z,6
2022-11-15T01:59:07.275Z,6
2022-11-15T02:00:09.882Z,5
2022-11-15T02:01:12.582Z,6
2022-11-15T02:02:15.383Z,6
2022-11-15T02:03:18.007Z,5
2022-11-15T02:04:20.621Z,7
2022-11-15T02:05:23.285Z,7
2022-11-15T02:06:25.952Z,7
2022-11-15T02:07:28.627Z,6
2022-11-15T02:08:31.540Z,6
2022-11-15T02:09:34.167Z,6
2022-11-15T02:10:36.806Z,6
2022-11-15T02:11:39.441Z,6
2022-11-15T02:12:42.184Z,6
2022-11-15T02:13:44.833Z,7
2022-11-15T02:14:47.474Z,7
2022-11-15T02:15:50.116Z,7
2022-11-15T02:16:52.756Z,6
2022-11-15T02:17:55.605Z,7
2022-11-15T02:18:58.237Z,7
2022-11-15T02:20:00.878Z,6
2022-11-15T02:21:03.519Z,7
2022-11-15T02:22:16.147Z,7
2022-11-15T02:23:18.390Z,7
2022-11-15T02:24:20.972Z,6
2022-11-15T02:25:23.574Z,6
2022-11-15T02:26:26.192Z,6
2022-11-15T02:27:28.845Z,7
2022-11-15T02:28:31.567Z,6
2022-11-15T02:29:34.203Z,7
2022-11-15T02:30:36.856Z,7
2022-11-15T02:31:39.499Z,6
2022-11-15T02:32:42.088Z,7
2022-11-15T02:33:44.752Z,6
2022-11-15T02:34:48.369Z,6
2022-11-15T02:35:55.634Z,7
2022-11-15T02:37:00.836Z,7
2022-11-15T02:38:03.473Z,7
2022-11-15T02:39:06.110Z,6
2022-11-15T02:40:08.719Z,6
2022-11-15T02:41:11.346Z,6
2022-11-15T02:42:13.968Z,7
2022-11-15T02:43:16.635Z,6
2022-11-15T02:44:25.856Z,7
2022-11-15T02:45:27.973Z,6
2022-11-15T02:46:30.611Z,7
2022-11-15T02:47:34.172Z,6
2022-11-15T02:48:36.809Z,7
2022-11-15T02:49:39.458Z,10
2022-11-15T02:50:42.091Z,8
2022-11-15T02:51:44.713Z,7
2022-11-15T02:52:47.376Z,7
2022-11-15T02:53:50.029Z,7
2022-11-15T02:54:52.650Z,7
2022-11-15T02:55:55.335Z,7
2022-11-15T02:56:57.975Z,7
2022-11-15T02:58:00.599Z,7
2022-11-15T02:59:03.251Z,7
2022-11-15T03:00:05.985Z,7
2022-11-15T03:01:08.641Z,7
2022-11-15T03:02:11.597Z,7
2022-11-15T03:03:14.211Z,7
2022-11-15T03:04:16.850Z,7
2022-11-15T03:05:19.533Z,7
2022-11-15T03:06:22.182Z,7
2022-11-15T03:07:24.826Z,7
2022-11-15T03:08:27.651Z,7
2022-11-15T03:09:30.266Z,7
2022-11-15T03:10:33.490Z,7
2022-11-15T03:11:36.309Z,7
2022-11-15T03:12:38.953Z,7
2022-11-15T03:13:41.570Z,7
2022-11-15T03:14:44.230Z,7
2022-11-15T03:15:46.908Z,10
2022-11-15T03:16:49.550Z,15
2022-11-15T03:17:52.215Z,26
2022-11-15T03:18:54.841Z,28
2022-11-15T03:19:57.497Z,36
2022-11-15T03:21:00.185Z,44
2022-11-15T03:22:06.304Z,37
2022-11-15T03:23:08.711Z,34
2022-11-15T03:24:11.315Z,36
2022-11-15T03:25:13.930Z,37
2022-11-15T03:26:16.565Z,32
2022-11-15T03:27:19.216Z,27
2022-11-15T03:28:22.111Z,27
2022-11-15T03:29:24.746Z,23
2022-11-15T03:30:27.413Z,23
2022-11-15T03:31:31.108Z,20
2022-11-15T03:32:33.649Z,18
2022-11-15T03:33:36.299Z,11
2022-11-15T03:34:38.916Z,8
2022-11-15T03:35:41.545Z,7
2022-11-15T03:36:44.192Z,5
2022-11-15T03:37:46.875Z,4
2022-11-15T03:38:49.750Z,4
2022-11-15T03:39:52.381Z,4
2022-11-15T03:40:55.053Z,4
2022-11-15T03:41:57.673Z,4
2022-11-15T03:43:00.322Z,4
2022-11-15T03:44:03.183Z,4
2022-11-15T03:45:06.043Z,3
2022-11-15T03:46:08.687Z,3
2022-11-15T03:47:11.387Z,3
2022-11-15T03:48:14.001Z,3
2022-11-15T03:49:16.659Z,3
2022-11-15T03:50:19.331Z,3
2022-11-15T03:51:21.994Z,3
2022-11-15T03:52:24.615Z,3
2022-11-15T03:53:27.230Z,3
2022-11-15T03:54:29.866Z,3
2022-11-15T03:55:35.008Z,3
2022-11-15T03:56:37.485Z,3
2022-11-15T03:57:40.099Z,4
2022-11-15T03:58:42.742Z,4
2022-11-15T03:59:45.385Z,4
2022-11-15T04:00:48.032Z,3
2022-11-15T04:01:50.919Z,3
2022-11-15T04:02:53.635Z,3
2022-11-15T04:03:56.268Z,3
2022-11-15T04:04:58.879Z,4
2022-11-15T04:06:01.574Z,3
2022-11-15T04:07:04.245Z,2
2022-11-15T04:08:07.108Z,3
2022-11-15T04:09:09.726Z,3
2022-11-15T04:10:12.348Z,3
2022-11-15T04:11:15.007Z,3
2022-11-15T04:12:17.650Z,3
2022-11-15T04:13:20.278Z,3
2022-11-15T04:14:23.531Z,3
2022-11-15T04:15:26.096Z,2
2022-11-15T04:16:28.719Z,3
2022-11-15T04:17:31.394Z,3
2022-11-15T04:18:34.087Z,3
2022-11-15T04:19:36.704Z,3
2022-11-15T04:20:39.358Z,3
2022-11-15T04:21:42.185Z,3
2022-11-15T04:22:45.405Z,3
2022-11-15T04:23:47.995Z,3
2022-11-15T04:24:50.635Z,3
2022-11-15T04:25:53.271Z,3
2022-11-15T04:26:55.915Z,4
2022-11-15T04:27:58.578Z,3
2022-11-15T04:29:01.847Z,3
2022-11-15T04:30:04.478Z,4
2022-11-15T04:31:07.386Z,3
2022-11-15T04:32:10.031Z,3
2022-11-15T04:33:12.828Z,3
2022-11-15T04:34:15.551Z,4
2022-11-15T04:35:18.173Z,3
2022-11-15T04:36:20.818Z,3
2022-11-15T04:37:23.454Z,3
2022-11-15T04:38:26.092Z,3
2022-11-15T04:39:28.720Z,3
2022-11-15T04:40:31.357Z,3
2022-11-15T04:41:34.257Z,3
2022-11-15T04:42:36.869Z,3
2022-11-15T04:43:39.525Z,2
2022-11-15T04:44:42.161Z,3
2022-11-15T04:45:44.796Z,3
2022-11-15T04:46:47.435Z,3
2022-11-15T04:47:50.058Z,2
2022-11-15T04:48:57.045Z,2
2022-11-15T04:50:01.778Z,3
2022-11-15T04:51:04.623Z,3
2022-11-15T04:52:07.264Z,3
2022-11-15T04:53:09.960Z,3
2022-11-15T04:54:12.596Z,2
2022-11-15T04:55:15.238Z,3
2022-11-15T04:56:17.883Z,2
2022-11-15T04:57:20.556Z,2
2022-11-15T04:58:23.213Z,3
2022-11-15T04:59:29.343Z,3
2022-11-15T05:00:31.770Z,3
2022-11-15T05:01:34.482Z,2
2022-11-15T05:02:37.356Z,2
2022-11-15T05:03:41.010Z,3
2022-11-15T05:04:44.041Z,2
2022-11-15T05:05:46.763Z,3
2022-11-15T05:06:49.443Z,3
2022-11-15T05:07:52.263Z,3
2022-11-15T05:09:00.432Z,2
2022-11-15T05:10:02.604Z,3
2022-11-15T05:11:05.219Z,3
2022-11-15T05:12:07.845Z,3
2022-11-15T05:13:10.482Z,3
2022-11-15T05:14:13.105Z,3
2022-11-15T05:15:16.319Z,3
2022-11-15T05:16:18.940Z,2
2022-11-15T05:17:25.509Z,3
2022-11-15T05:18:29.248Z,3
2022-11-15T05:19:33.167Z,3
2022-11-15T05:20:35.722Z,3
2022-11-15T05:21:38.416Z,2
2022-11-15T05:22:41.048Z,3
2022-11-15T05:23:43.682Z,3
2022-11-15T05:24:47.825Z,3
2022-11-15T05:25:54.906Z,3
2022-11-15T05:26:57.201Z,3
2022-11-15T05:27:59.825Z,3
2022-11-15T05:29:02.686Z,3
2022-11-15T05:30:05.386Z,3
2022-11-15T05:31:08.023Z,3
2022-11-15T05:32:10.680Z,3
2022-11-15T05:33:13.327Z,3
2022-11-15T05:34:15.935Z,3
2022-11-15T05:35:18.553Z,3
2022-11-15T05:36:21.259Z,3
2022-11-15T05:37:23.984Z,3
2022-11-15T05:38:26.634Z,3
2022-11-15T05:39:29.250Z,2
2022-11-15T05:40:31.869Z,3
2022-11-15T05:41:34.498Z,3
2022-11-15T05:42:40.636Z,3
2022-11-15T05:43:43.061Z,3
2022-11-15T05:44:45.683Z,3
2022-11-15T05:45:48.313Z,2
2022-11-15T05:46:53.623Z,3
2022-11-15T05:47:58.801Z,2
2022-11-15T05:49:01.451Z,3
2022-11-15T05:50:04.295Z,3
2022-11-15T05:51:07.374Z,3
2022-11-15T05:52:13.531Z,3
2022-11-15T05:53:16.095Z,3
2022-11-15T05:54:18.794Z,3
2022-11-15T05:55:21.403Z,3
2022-11-15T05:56:24.040Z,3
2022-11-15T05:57:26.594Z,3
2022-11-15T05:58:29.248Z,3
2022-11-15T05:59:31.837Z,3
2022-11-15T06:00:34.452Z,3
2022-11-15T06:01:37.147Z,3
2022-11-15T06:02:40.295Z,3
2022-11-15T06:03:43.494Z,3
2022-11-15T06:04:46.095Z,3
2022-11-15T06:05:48.706Z,3
2022-11-15T06:06:51.465Z,3
2022-11-15T06:07:54.337Z,3
2022-11-15T06:08:57.809Z,3
2022-11-15T06:10:00.425Z,3
2022-11-15T06:11:03.274Z,4
2022-11-15T06:12:05.937Z,4
2022-11-15T06:13:08.513Z,4
2022-11-15T06:14:14.636Z,4
2022-11-15T06:15:17.101Z,4
2022-11-15T06:16:19.749Z,4
2022-11-15T06:17:22.351Z,4
2022-11-15T06:18:24.927Z,4
2022-11-15T06:19:27.523Z,4
2022-11-15T06:20:30.048Z,4
2022-11-15T06:21:32.516Z,4
2022-11-15T06:22:35.154Z,4
2022-11-15T06:23:37.970Z,4
2022-11-15T06:24:40.656Z,4
2022-11-15T06:25:43.274Z,4
2022-11-15T06:26:45.883Z,4
2022-11-15T06:27:48.529Z,5
2022-11-15T06:28:52.690Z,4
2022-11-15T06:29:55.703Z,4
2022-11-15T06:30:58.292Z,4
2022-11-15T06:32:00.928Z,4
2022-11-15T06:33:03.550Z,4
2022-11-15T06:34:06.191Z,4
2022-11-15T06:35:08.846Z,4
2022-11-15T06:36:16.169Z,7
2022-11-15T06:37:20.499Z,4
2022-11-15T06:38:23.117Z,4
2022-11-15T06:39:25.744Z,5
2022-11-15T06:40:28.534Z,5
2022-11-15T06:41:31.189Z,5
2022-11-15T06:42:34.060Z,6
2022-11-15T06:43:36.704Z,6
2022-11-15T06:44:39.319Z,6
2022-11-15T06:45:42.154Z,5
2022-11-15T06:46:44.780Z,7
2022-11-15T06:47:47.463Z,6
2022-11-15T06:48:50.070Z,6
2022-11-15T06:49:52.718Z,6
2022-11-15T06:50:55.368Z,6
2022-11-15T06:52:02.498Z,6
2022-11-15T06:53:07.361Z,5
2022-11-15T06:54:13.468Z,4
2022-11-15T06:55:16.035Z,4
2022-11-15T06:56:18.739Z,4
2022-11-15T06:57:22.314Z,4
2022-11-15T06:58:24.992Z,4
2022-11-15T06:59:27.642Z,4
2022-11-15T07:00:30.249Z,4
2022-11-15T07:01:42.964Z,4
2022-11-15T07:02:52.846Z,4
2022-11-15T07:03:55.163Z,4
2022-11-15T07:04:57.733Z,4
2022-11-15T07:06:06.703Z,4
2022-11-15T07:07:10.150Z,4
2022-11-15T07:08:13.040Z,4
2022-11-15T07:09:15.705Z,4
2022-11-15T07:10:18.932Z,4
2022-11-15T07:11:21.832Z,4
2022-11-15T07:12:24.450Z,4
2022-11-15T07:13:27.071Z,4
2022-11-15T07:14:29.738Z,4
2022-11-15T07:15:32.356Z,5
2022-11-15T07:16:35.007Z,4
2022-11-15T07:17:37.723Z,5
2022-11-15T07:18:40.605Z,4
2022-11-15T07:19:53.238Z,4
2022-11-15T07:20:55.423Z,6
2022-11-15T07:21:58.023Z,7
2022-11-15T07:23:00.649Z,6
2022-11-15T07:24:03.276Z,6
2022-11-15T07:25:05.876Z,6
2022-11-15T07:26:09.440Z,7
2022-11-15T07:27:12.796Z,7
2022-11-15T07:28:16.001Z,7
2022-11-15T07:29:19.250Z,7
2022-11-15T07:30:22.085Z,6
2022-11-15T07:31:24.736Z,6
2022-11-15T07:32:27.361Z,7
2022-11-15T07:33:30.162Z,5
2022-11-15T07:34:33.803Z,6
2022-11-15T07:35:36.435Z,5
2022-11-15T07:36:39.091Z,5
2022-11-15T07:37:41.765Z,4
2022-11-15T07:38:44.422Z,5
2022-11-15T07:39:50.546Z,4
2022-11-15T07:40:53.154Z,4
2022-11-15T07:41:55.821Z,5
2022-11-15T07:42:58.515Z,5
2022-11-15T07:44:01.148Z,5
2022-11-15T07:45:03.803Z,6
2022-11-15T07:46:06.439Z,5
2022-11-15T07:47:27.008Z,5
2022-11-15T07:48:40.194Z,6
2022-11-15T07:49:47.436Z,4
2022-11-15T07:50:49.994Z,4
2022-11-15T07:51:52.664Z,4
2022-11-15T07:52:55.460Z,4
2022-11-15T07:53:58.106Z,4
2022-11-15T07:55:00.719Z,4
2022-11-15T07:56:03.350Z,4
2022-11-15T07:57:19.221Z,4
2022-11-15T07:58:21.643Z,3
2022-11-15T07:59:24.447Z,4
2022-11-15T08:00:38.592Z,4
2022-11-15T08:01:40.881Z,4
2022-11-15T08:02:44.540Z,4
2022-11-15T08:03:47.709Z,4
2022-11-15T08:04:50.353Z,4
2022-11-15T08:05:53.241Z,4
2022-11-15T08:06:56.099Z,4
2022-11-15T08:07:59.049Z,4
2022-11-15T08:09:01.915Z,4
2022-11-15T08:10:04.530Z,3
2022-11-15T08:11:07.408Z,3
2022-11-15T08:12:10.036Z,3
2022-11-15T08:13:12.695Z,3
2022-11-15T08:14:15.714Z,3
2022-11-15T08:15:18.336Z,4
2022-11-15T08:16:21.011Z,4
2022-11-15T08:17:23.703Z,4
2022-11-15T08:18:26.281Z,4
2022-11-15T08:19:29.144Z,4
2022-11-15T08:20:31.768Z,4
2022-11-15T08:21:44.392Z,4
2022-11-15T08:22:46.587Z,4
2022-11-15T08:23:56.726Z,4
2022-11-15T08:24:58.975Z,4
2022-11-15T08:26:01.561Z,4
2022-11-15T08:27:04.238Z,4
2022-11-15T08:28:07.042Z,4
2022-11-15T08:29:13.214Z,4
2022-11-15T08:30:15.971Z,4
2022-11-15T08:31:18.593Z,4
2022-11-15T08:32:21.257Z,4
2022-11-15T08:33:23.904Z,5
2022-11-15T08:34:27.515Z,4
2022-11-15T08:35:30.145Z,4
2022-11-15T08:36:41.714Z,4
2022-11-15T08:37:48.300Z,4
2022-11-15T08:38:50.933Z,7
2022-11-15T08:39:53.533Z,7
2022-11-15T08:40:56.070Z,8
2022-11-15T08:41:59.515Z,7
2022-11-15T08:43:02.108Z,7
2022-11-15T08:44:04.766Z,7
2022-11-15T08:45:07.445Z,8
2022-11-15T08:46:13.608Z,7
2022-11-15T08:47:15.981Z,5
2022-11-15T08:48:18.584Z,4
2022-11-15T08:49:21.238Z,4
2022-11-15T08:50:23.969Z,4
2022-11-15T08:51:27.124Z,4
2022-11-15T08:52:29.736Z,5
2022-11-15T08:53:32.373Z,4
2022-11-15T08:54:35.014Z,4
2022-11-15T08:55:37.700Z,4
2022-11-15T08:56:40.328Z,4
2022-11-15T08:57:42.964Z,4
2022-11-15T08:58:45.611Z,4
2022-11-15T08:59:48.308Z,4
2022-11-15T09:00:50.875Z,4
2022-11-15T09:01:53.882Z,4
2022-11-15T09:02:57.987Z,4
2022-11-15T09:04:00.517Z,4
2022-11-15T09:05:03.082Z,5
2022-11-15T09:06:06.013Z,6
2022-11-15T09:07:08.691Z,6
2022-11-15T09:08:32.685Z,6
2022-11-15T09:09:33.382Z,5
2022-11-15T09:10:35.959Z,6
2022-11-15T09:11:38.614Z,6
2022-11-15T09:12:41.251Z,5
2022-11-15T09:13:43.862Z,6
2022-11-15T09:14:46.566Z,5
2022-11-15T09:15:49.206Z,5
2022-11-15T09:16:51.913Z,5
2022-11-15T09:17:54.636Z,4
2022-11-15T09:19:10.468Z,4
2022-11-15T09:20:14.114Z,4
2022-11-15T09:21:16.717Z,4
2022-11-15T09:22:19.350Z,4
2022-11-15T09:23:22.233Z,4
2022-11-15T09:24:24.838Z,6
2022-11-15T09:25:27.487Z,6
2022-11-15T09:26:30.130Z,7
2022-11-15T09:27:32.764Z,7
2022-11-15T09:28:35.845Z,9
2022-11-15T09:29:39.082Z,10
2022-11-15T09:30:42.316Z,14
2022-11-15T09:31:45.422Z,13
2022-11-15T09:32:48.046Z,11
2022-11-15T09:33:50.741Z,11
2022-11-15T09:34:53.359Z,11
2022-11-15T09:35:56.019Z,13
2022-11-15T09:36:58.696Z,13
2022-11-15T09:38:01.288Z,15
2022-11-15T09:39:04.678Z,17
2022-11-15T09:40:07.330Z,20
2022-11-15T09:41:09.987Z,18
2022-11-15T09:42:12.606Z,15
2022-11-15T09:43:15.221Z,18
2022-11-15T09:44:19.977Z,13
2022-11-15T09:45:28.157Z,11
2022-11-15T09:46:30.814Z,11
2022-11-15T09:47:33.432Z,11
2022-11-15T09:48:36.114Z,10
2022-11-15T09:49:38.772Z,10
2022-11-15T09:50:41.621Z,7
2022-11-15T09:51:44.319Z,6
2022-11-15T09:52:46.942Z,5
2022-11-15T09:55:11.448Z,4
2022-11-15T09:56:14.037Z,4
2022-11-15T09:57:16.733Z,4
2022-11-15T09:58:19.369Z,4
2022-11-15T09:59:22.149Z,3
2022-11-15T10:01:49.109Z,4
2022-11-15T10:02:53.159Z,4
2022-11-15T10:03:55.794Z,4
2022-11-15T10:04:58.459Z,4
2022-11-15T10:06:01.079Z,4
2022-11-15T10:07:03.737Z,4
2022-11-15T10:08:06.618Z,4
2022-11-15T10:09:09.464Z,4
2022-11-15T10:10:15.597Z,4
2022-11-15T10:12:39.834Z,4
2022-11-15T10:13:42.468Z,4
2022-11-15T10:14:47.205Z,4
2022-11-15T10:15:56.959Z,5
2022-11-15T10:16:59.567Z,4
2022-11-15T10:18:12.437Z,5
2022-11-15T10:19:14.648Z,5
2022-11-15T10:20:17.361Z,6
2022-11-15T10:21:20.803Z,5
2022-11-15T10:22:23.510Z,4
2022-11-15T10:23:26.155Z,5
2022-11-15T10:24:28.798Z,6
2022-11-15T10:25:31.467Z,6
2022-11-15T10:26:34.120Z,4
2022-11-15T10:27:36.717Z,4
2022-11-15T10:28:39.378Z,4
2022-11-15T10:29:42.013Z,4
2022-11-15T10:30:45.300Z,4
2022-11-15T10:31:47.912Z,4
2022-11-15T10:32:50.572Z,4
2022-11-15T10:33:53.222Z,3
2022-11-15T10:34:56.050Z,3
2022-11-15T10:35:58.790Z,3
2022-11-15T10:37:01.607Z,3
2022-11-15T10:38:04.301Z,3
2022-11-15T10:39:06.944Z,3
2022-11-15T10:40:09.572Z,3
2022-11-15T10:41:12.232Z,3
2022-11-15T10:42:17.733Z,3
2022-11-15T10:43:20.643Z,4
2022-11-15T10:44:23.249Z,3
2022-11-15T10:45:25.876Z,4
2022-11-15T10:46:46.446Z,4
2022-11-15T10:47:50.100Z,3
2022-11-15T10:48:52.680Z,4
2022-11-15T10:49:55.325Z,4
2022-11-15T10:50:57.969Z,4
2022-11-15T10:52:00.730Z,3
2022-11-15T10:53:06.858Z,4
2022-11-15T10:54:12.412Z,7
2022-11-15T10:55:23.336Z,7
2022-11-15T10:56:25.960Z,7
2022-11-15T10:57:28.573Z,8
2022-11-15T10:58:31.502Z,7
2022-11-15T10:59:38.933Z,7
2022-11-15T11:00:41.810Z,7
2022-11-15T11:01:44.485Z,6
2022-11-15T11:02:47.219Z,4
2022-11-15T11:03:49.886Z,4
2022-11-15T11:04:53.128Z,3
2022-11-15T11:05:55.725Z,3
2022-11-15T11:06:58.444Z,3
2022-11-15T11:08:01.360Z,3
2022-11-15T11:09:04.011Z,4
2022-11-15T11:10:17.685Z,4
2022-11-15T11:11:28.560Z,4
2022-11-15T11:12:31.128Z,5
2022-11-15T11:13:34.306Z,6
2022-11-15T11:14:36.943Z,6
2022-11-15T11:15:39.566Z,6
2022-11-15T11:16:42.390Z,7
2022-11-15T11:17:45.022Z,7
2022-11-15T11:18:47.649Z,7
2022-11-15T11:19:50.270Z,6
2022-11-15T11:20:52.899Z,6
2022-11-15T11:21:55.543Z,6
2022-11-15T11:22:58.227Z,5
2022-11-15T11:24:00.966Z,5
2022-11-15T11:25:03.634Z,4
2022-11-15T11:26:06.261Z,5
2022-11-15T11:27:08.879Z,4
2022-11-15T11:28:11.521Z,4
2022-11-15T11:29:14.123Z,4
2022-11-15T11:30:16.956Z,4
2022-11-15T11:31:19.601Z,4
2022-11-15T11:32:22.242Z,5
2022-11-15T11:33:24.895Z,7
2022-11-15T11:34:27.549Z,6
2022-11-15T11:35:30.210Z,5
2022-11-15T11:36:32.868Z,5
2022-11-15T11:37:35.503Z,6
2022-11-15T11:38:38.148Z,7
2022-11-15T11:39:41.181Z,8
2022-11-15T11:40:43.793Z,7
2022-11-15T11:41:46.470Z,8
2022-11-15T11:42:49.090Z,8
2022-11-15T11:43:51.741Z,7
2022-11-15T11:44:54.399Z,7
2022-11-15T11:45:58.593Z,7
2022-11-15T11:47:01.155Z,6
2022-11-15T11:48:03.753Z,6
2022-11-15T11:49:06.377Z,6
2022-11-15T11:50:08.964Z,4
2022-11-15T11:51:11.582Z,4
2022-11-15T11:52:14.264Z,4
2022-11-15T11:53:16.893Z,4
2022-11-15T11:54:19.530Z,4
2022-11-15T11:55:22.459Z,4
2022-11-15T11:56:25.140Z,5
2022-11-15T11:57:28.029Z,5
2022-11-15T11:58:31.032Z,7
2022-11-15T11:59:34.809Z,14
2022-11-15T12:00:40.938Z,20
2022-11-15T12:01:43.615Z,21
2022-11-15T12:02:47.081Z,23
2022-11-15T12:03:50.290Z,25
2022-11-15T12:04:52.933Z,24
2022-11-15T12:05:55.595Z,22
2022-11-15T12:06:58.258Z,14
2022-11-15T12:08:04.079Z,10
2022-11-15T12:09:07.056Z,7
2022-11-15T12:10:10.173Z,7
2022-11-15T12:11:12.899Z,6
2022-11-15T12:12:15.566Z,5
2022-11-15T12:13:18.173Z,4
2022-11-15T12:14:20.871Z,4
2022-11-15T12:15:23.534Z,7
2022-11-15T12:16:26.192Z,6
2022-11-15T12:17:28.862Z,6
2022-11-15T12:18:31.855Z,6
2022-11-15T12:19:35.831Z,5
2022-11-15T12:20:38.489Z,4
2022-11-15T12:21:41.168Z,3
2022-11-15T12:22:45.313Z,3
2022-11-15T12:23:47.801Z,3
2022-11-15T12:24:50.455Z,3
2022-11-15T12:25:53.133Z,4
2022-11-15T12:26:56.858Z,3
2022-11-15T12:27:59.539Z,3
2022-11-15T12:29:07.738Z,4
2022-11-15T12:30:11.650Z,5
2022-11-15T12:31:14.504Z,4
2022-11-15T12:32:17.158Z,4
2022-11-15T12:33:19.996Z,4
2022-11-15T12:34:22.854Z,3
2022-11-15T12:35:25.546Z,3
2022-11-15T12:36:28.212Z,2
2022-11-15T12:37:31.149Z,2
2022-11-15T12:38:35.430Z,3
2022-11-15T12:39:38.081Z,3
2022-11-15T12:40:40.742Z,3
2022-11-15T12:41:43.425Z,3
2022-11-15T12:42:46.488Z,4
2022-11-15T12:43:49.585Z,4
2022-11-15T12:44:52.209Z,-1
2022-11-15T12:45:54.917Z,3
2022-11-15T12:47:03.321Z,3
2022-11-15T12:48:05.596Z,3
2022-11-15T12:49:13.716Z,2
2022-11-15T12:50:15.986Z,3
2022-11-15T12:51:23.194Z,3
2022-11-15T12:52:25.371Z,3
2022-11-15T12:53:28.049Z,3
2022-11-15T12:54:30.660Z,3
2022-11-15T12:55:33.317Z,3
2022-11-15T12:56:35.945Z,3
2022-11-15T12:57:43.163Z,3
2022-11-15T12:58:51.050Z,3
2022-11-15T12:59:53.318Z,3
2022-11-15T13:00:55.925Z,3
2022-11-15T13:01:58.969Z,2
2022-11-15T13:03:01.652Z,4
2022-11-15T13:04:04.267Z,3
2022-11-15T13:05:07.150Z,2
2022-11-15T13:06:09.812Z,3
2022-11-15T13:07:12.527Z,2
2022-11-15T13:08:15.346Z,2
2022-11-15T13:09:17.975Z,3
2022-11-15T13:10:23.874Z,3
2022-11-15T13:11:30.701Z,2
2022-11-15T13:12:38.863Z,3
2022-11-15T13:13:41.153Z,3
2022-11-15T13:14:43.847Z,3
2022-11-15T13:15:46.516Z,3
2022-11-15T13:16:52.696Z,3
2022-11-15T13:17:55.081Z,3
2022-11-15T13:18:57.710Z,4
2022-11-15T13:20:04.920Z,10
2022-11-15T13:21:07.114Z,20
2022-11-15T13:22:09.740Z,25
2022-11-15T13:23:29.844Z,29
2022-11-15T13:24:32.303Z,28
2022-11-15T13:25:34.888Z,27
2022-11-15T13:26:37.743Z,27
2022-11-15T13:27:40.421Z,27
2022-11-15T13:28:44.121Z,27
2022-11-15T13:29:46.815Z,24
2022-11-15T13:30:49.478Z,19
2022-11-15T13:31:52.804Z,14
2022-11-15T13:32:55.411Z,13
2022-11-15T13:33:58.052Z,11
2022-11-15T13:35:00.721Z,10
2022-11-15T13:36:03.362Z,8
2022-11-15T13:37:06.000Z,7
2022-11-15T13:38:08.637Z,8
2022-11-15T13:39:11.318Z,10
2022-11-15T13:40:13.955Z,11
2022-11-15T13:41:16.561Z,13
2022-11-15T13:42:19.249Z,11
2022-11-15T13:43:22.273Z,11
2022-11-15T13:44:28.409Z,13
2022-11-15T13:45:30.931Z,13
2022-11-15T13:46:33.548Z,13
2022-11-15T13:47:36.193Z,13
2022-11-15T13:48:38.792Z,11
2022-11-15T13:49:41.489Z,11
2022-11-15T13:50:44.125Z,11
2022-11-15T13:51:46.751Z,13
2022-11-15T13:52:49.391Z,11
2022-11-15T13:53:52.048Z,9
2022-11-15T13:54:54.739Z,7
2022-11-15T13:55:57.643Z,7
2022-11-15T13:57:00.344Z,7
2022-11-15T13:58:03.005Z,7
2022-11-15T13:59:05.669Z,5
2022-11-15T14:00:08.334Z,6
2022-11-15T14:01:11.090Z,6
2022-11-15T14:02:13.759Z,7
2022-11-15T14:03:16.398Z,7
2022-11-15T14:04:19.041Z,5
2022-11-15T14:05:27.200Z,4
2022-11-15T14:06:29.463Z,5
2022-11-15T14:07:39.200Z,10
2022-11-15T14:08:46.520Z,10
2022-11-15T14:09:49.333Z,8
2022-11-15T14:10:51.961Z,7
2022-11-15T14:11:54.623Z,7
2022-11-15T14:12:57.334Z,7
2022-11-15T14:14:00.000Z,8
2022-11-15T14:15:02.649Z,7
2022-11-15T14:16:05.335Z,9
2022-11-15T14:17:08.105Z,10
2022-11-15T14:18:10.739Z,11
2022-11-15T14:19:14.002Z,9
2022-11-15T14:20:21.150Z,7
2022-11-15T14:21:23.375Z,8
2022-11-15T14:22:26.094Z,8
2022-11-15T14:23:28.749Z,8
2022-11-15T14:24:31.470Z,8
2022-11-15T14:25:34.096Z,8
2022-11-15T14:26:36.751Z,10
2022-11-15T14:27:45.903Z,10
2022-11-15T14:28:48.088Z,7
2022-11-15T14:29:50.768Z,7
2022-11-15T14:30:53.390Z,8
2022-11-15T14:31:56.062Z,7
2022-11-15T14:32:59.023Z,6
2022-11-15T14:34:01.681Z,7
2022-11-15T14:35:04.359Z,7
2022-11-15T14:36:07.007Z,7
2022-11-15T14:37:15.169Z,6
2022-11-15T14:38:18.912Z,6
2022-11-15T14:39:21.432Z,6
2022-11-15T14:40:24.088Z,5
2022-11-15T14:41:26.724Z,4
2022-11-15T14:42:29.362Z,4
2022-11-15T14:43:32.028Z,5
2022-11-15T14:44:34.651Z,5
2022-11-15T14:45:37.279Z,7
2022-11-15T14:46:48.542Z,8
2022-11-15T14:48:04.379Z,11
2022-11-15T14:49:15.180Z,10
2022-11-15T14:50:17.762Z,10
2022-11-15T14:51:20.608Z,11
2022-11-15T14:52:26.228Z,8
2022-11-15T14:53:38.775Z,7
2022-11-15T14:55:45.144Z,6
2022-11-15T14:56:49.410Z,6
2022-11-15T14:58:23.585Z,5
2022-11-15T14:59:25.962Z,6
2022-11-15T15:00:32.418Z,7
2022-11-15T15:01:37.919Z,9
2022-11-15T15:02:40.530Z,8
2022-11-15T15:03:43.174Z,7
2022-11-15T15:04:45.848Z,7
2022-11-15T15:05:48.484Z,8
2022-11-15T15:06:51.234Z,7
2022-11-15T15:07:54.705Z,10
2022-11-15T15:08:59.490Z,7
2022-11-15T15:10:32.856Z,8
2022-11-15T15:11:24.867Z,8
2022-11-15T15:12:27.472Z,7
2022-11-15T15:13:30.089Z,7
2022-11-15T15:14:42.704Z,8
2022-11-15T15:15:51.447Z,8
2022-11-15T15:16:58.721Z,9
2022-11-15T15:18:01.499Z,11
2022-11-15T15:19:04.174Z,19
2022-11-15T15:20:06.887Z,23
2022-11-15T15:21:09.499Z,22
2022-11-15T15:22:17.613Z,22
2022-11-15T15:23:19.819Z,18
2022-11-15T15:24:22.425Z,26
2022-11-15T15:25:36.638Z,29
2022-11-15T15:26:39.171Z,24
2022-11-15T15:27:46.517Z,22
2022-11-15T15:28:48.809Z,21
2022-11-15T15:29:51.419Z,25
2022-11-15T15:30:54.013Z,25
2022-11-15T15:33:40.572Z,25
2022-11-15T15:35:05.548Z,27
2022-11-15T15:36:07.580Z,24
2022-11-15T15:37:11.656Z,21
2022-11-15T15:38:14.109Z,18
2022-11-15T15:39:16.751Z,20
2022-11-15T15:40:19.362Z,18
2022-11-15T15:41:22.007Z,17